Time;durP1;ratioP1;P1;durP2;ratioP2;P2;SDS_P1;SDS_P2;PMS_P1;PMS_P2;Temp;Humidity;BMP_temperature;BMP_pressure;BME280_temperature;BME280_humidity;BME280_pressure;Samples;Min_cycle;Max_cycle;Signal;HPM_P1;HPM_P2
2021/06/15 00:01:09;;;;;;;10.43;7.63;;;17.40;94.50;;;;;;4934120;29;20030;-73
2021/06/15 00:03:35;;;;;;;10.30;7.72;;;17.40;94.60;;;;;;4934759;29;20383;-71
2021/06/15 00:06:00;;;;;;;14.05;7.70;;;17.40;94.60;;;;;;4917138;29;20383;-71
2021/06/15 00:08:26;;;;;;;11.98;6.57;;;17.30;94.50;;;;;;4933982;29;20031;-70
2021/06/15 00:10:51;;;;;;;9.90;7.30;;;17.30;94.50;;;;;;4934400;29;20062;-70
2021/06/15 00:13:17;;;;;;;10.45;7.63;;;17.30;94.60;;;;;;4934792;29;20480;-71
2021/06/15 00:15:47;;;;;;;9.63;7.70;;;17.20;94.60;;;;;;4916588;29;20140;-70
2021/06/15 00:18:18;;;;;;;10.32;8.15;;;17.20;94.60;;;;;;4934692;29;20031;-70
2021/06/15 00:20:45;;;;;;;10.57;6.38;;;17.20;94.80;;;;;;4934116;29;20032;-71
2021/06/15 00:23:11;;;;;;;9.25;6.90;;;17.20;94.70;;;;;;4916646;29;20035;-72
2021/06/15 00:25:36;;;;;;;9.98;6.60;;;17.20;94.70;;;;;;4917534;29;20028;-71
2021/06/15 00:28:03;;;;;;;10.15;6.75;;;17.20;94.70;;;;;;4933543;29;20094;-70
2021/06/15 00:30:29;;;;;;;12.82;6.88;;;17.10;94.60;;;;;;4934548;29;20031;-71
2021/06/15 00:32:55;;;;;;;9.52;6.40;;;17.10;94.80;;;;;;4917131;29;20031;-70
2021/06/15 00:35:21;;;;;;;9.48;7.00;;;17.10;94.80;;;;;;4933854;29;20020;-71
2021/06/15 00:37:47;;;;;;;13.02;7.82;;;17.10;95.00;;;;;;4934103;29;20112;-71
2021/06/15 00:40:13;;;;;;;9.65;7.40;;;17.10;95.30;;;;;;4920281;29;20372;-73
2021/06/15 00:42:39;;;;;;;11.70;7.50;;;17.00;94.90;;;;;;4920480;29;20120;-71
2021/06/15 00:45:09;;;;;;;14.13;7.13;;;17.00;95.00;;;;;;4937554;29;20412;-71
2021/06/15 00:47:36;;;;;;;8.77;7.10;;;17.00;94.90;;;;;;4937953;29;20038;-71
2021/06/15 00:50:04;;;;;;;9.02;6.82;;;17.00;95.00;;;;;;4936915;29;20028;-71
2021/06/15 00:52:29;;;;;;;8.95;7.35;;;16.90;94.90;;;;;;4937892;29;20484;-72
2021/06/15 00:54:58;;;;;;;9.60;6.57;;;16.90;95.10;;;;;;4920238;29;20024;-76
2021/06/15 00:57:26;;;;;;;9.32;7.15;;;16.90;95.00;;;;;;4920203;29;20020;-71
2021/06/15 00:59:56;;;;;;;8.82;7.00;;;16.80;95.00;;;;;;4937514;29;20031;-70
2021/06/15 01:02:24;;;;;;;8.52;6.13;;;16.80;95.00;;;;;;4920985;29;20484;-71
2021/06/15 01:04:49;;;;;;;8.18;6.55;;;16.80;95.00;;;;;;4936832;29;20031;-71
2021/06/15 01:07:28;;;;;;;9.50;6.78;;;16.80;95.00;;;;;;4937616;29;20040;-71
2021/06/15 01:10:05;;;;;;;10.80;6.97;;;16.70;95.10;;;;;;4920074;29;20472;-71
2021/06/15 01:13:03;;;;;;;9.10;6.60;;;16.70;95.10;;;;;;4920587;29;20028;-70
2021/06/15 01:15:48;;;;;;;10.93;6.90;;;16.70;95.20;;;;;;4937271;29;20449;-75
2021/06/15 01:18:19;;;;;;;11.55;7.30;;;16.60;95.20;;;;;;4919807;29;20450;-78
2021/06/15 01:20:59;;;;;;;10.02;6.43;;;16.60;95.30;;;;;;4937151;29;20050;-72
2021/06/15 01:23:44;;;;;;;11.15;6.70;;;16.60;95.30;;;;;;4920672;29;20114;-71
2021/06/15 01:26:37;;;;;;;8.15;6.20;;;16.60;95.50;;;;;;4919236;29;20086;-71
2021/06/15 01:29:06;;;;;;;10.13;6.75;;;16.50;95.40;;;;;;4936749;29;20042;-71
2021/06/15 01:31:38;;;;;;;11.63;6.00;;;16.50;95.50;;;;;;4936394;29;20028;-71
2021/06/15 01:34:15;;;;;;;9.10;6.40;;;16.50;95.50;;;;;;4936741;29;20028;-72
2021/06/15 01:36:47;;;;;;;9.52;6.72;;;16.50;95.40;;;;;;4919861;29;20032;-71
2021/06/15 01:39:16;;;;;;;8.73;5.72;;;16.50;95.40;;;;;;4936572;29;20079;-71
2021/06/15 01:42:03;;;;;;;8.65;6.15;;;16.40;95.40;;;;;;4937038;29;20561;-71
2021/06/15 01:44:32;;;;;;;9.82;6.40;;;16.40;95.50;;;;;;4919644;29;20059;-71
2021/06/15 01:47:07;;;;;;;9.45;6.07;;;16.40;95.40;;;;;;4935828;29;20034;-70
2021/06/15 01:49:42;;;;;;;9.90;6.15;;;16.40;95.40;;;;;;4936861;29;20046;-71
2021/06/15 01:52:09;;;;;;;5.80;5.07;;;16.40;95.10;;;;;;4918568;29;20083;-71
2021/06/15 01:54:37;;;;;;;8.15;5.75;;;16.40;95.10;;;;;;4936076;29;20032;-70
2021/06/15 01:57:04;;;;;;;8.68;6.35;;;16.40;95.20;;;;;;4919254;29;20563;-71
2021/06/15 01:59:30;;;;;;;10.88;6.38;;;16.40;95.20;;;;;;4918817;29;20051;-71
2021/06/15 02:01:57;;;;;;;9.07;5.80;;;16.40;95.00;;;;;;4935996;29;20032;-70
2021/06/15 02:04:25;;;;;;;7.93;5.40;;;16.40;95.00;;;;;;4936673;29;20054;-70
2021/06/15 02:06:52;;;;;;;10.70;6.15;;;16.40;95.00;;;;;;4918405;29;20571;-71
2021/06/15 02:09:19;;;;;;;8.00;5.15;;;16.40;94.90;;;;;;4936568;29;20380;-71
2021/06/15 02:11:45;;;;;;;9.38;5.95;;;16.40;94.70;;;;;;4919070;29;20077;-71
2021/06/15 02:14:18;;;;;;;9.07;6.13;;;16.40;94.60;;;;;;4935634;29;20473;-71
2021/06/15 02:16:48;;;;;;;9.02;6.20;;;16.50;94.60;;;;;;4936141;29;20020;-70
2021/06/15 02:19:18;;;;;;;9.73;5.72;;;16.50;94.50;;;;;;4936372;29;20036;-71
2021/06/15 02:21:48;;;;;;;8.80;6.38;;;16.50;94.70;;;;;;4935520;29;20086;-71
2021/06/15 02:24:14;;;;;;;8.70;6.15;;;16.50;94.60;;;;;;4936279;29;20132;-71
2021/06/15 02:26:41;;;;;;;10.10;5.97;;;16.50;94.50;;;;;;4936136;29;20170;-71
2021/06/15 02:29:10;;;;;;;9.38;6.43;;;16.60;94.40;;;;;;4934895;29;20058;-71
2021/06/15 02:31:44;;;;;;;7.68;6.68;;;16.60;94.60;;;;;;4936054;29;20024;-71
2021/06/15 02:34:15;;;;;;;8.40;5.80;;;16.70;94.60;;;;;;4935903;29;20023;-70
2021/06/15 02:36:42;;;;;;;10.93;6.05;;;16.70;94.50;;;;;;4918336;29;20376;-71
2021/06/15 02:39:15;;;;;;;7.85;6.25;;;16.70;94.30;;;;;;4918543;29;20020;-70
2021/06/15 02:41:43;;;;;;;10.98;6.10;;;16.80;94.30;;;;;;4917978;29;20472;-70
2021/06/15 02:44:12;;;;;;;9.15;6.53;;;16.80;94.30;;;;;;4935628;29;20034;-74
2021/06/15 02:46:40;;;;;;;10.82;6.18;;;16.90;94.30;;;;;;4935624;29;20086;-71
2021/06/15 02:49:12;;;;;;;8.35;6.03;;;16.90;94.00;;;;;;4934942;29;20671;-70
2021/06/15 02:51:44;;;;;;;7.63;5.82;;;16.90;93.70;;;;;;4935698;29;20024;-70
2021/06/15 02:54:20;;;;;;;8.70;5.55;;;16.90;93.60;;;;;;4918466;29;20035;-71
2021/06/15 02:56:51;;;;;;;10.68;5.95;;;16.90;93.60;;;;;;4934554;29;20079;-73
2021/06/15 02:59:17;;;;;;;9.37;5.77;;;16.90;93.40;;;;;;4935679;29;20027;-71
2021/06/15 03:01:50;;;;;;;8.02;6.13;;;16.90;93.20;;;;;;4918667;29;20633;-71
2021/06/15 03:04:17;;;;;;;8.63;5.70;;;16.90;93.10;;;;;;4935065;29;20032;-71
2021/06/15 03:06:43;;;;;;;11.35;6.22;;;16.80;93.10;;;;;;4935364;29;20107;-71
2021/06/15 03:09:10;;;;;;;10.15;5.22;;;16.90;93.00;;;;;;4935255;29;20488;-74
2021/06/15 03:11:42;;;;;;;9.20;5.20;;;16.80;93.00;;;;;;4934798;29;20032;-71
2021/06/15 03:14:25;;;;;;;8.13;5.03;;;16.80;92.90;;;;;;4935023;29;20028;-70
2021/06/15 03:16:55;;;;;;;7.05;4.85;;;16.80;92.90;;;;;;4934369;29;20027;-72
2021/06/15 03:19:59;;;;;;;6.68;4.63;;;16.80;92.90;;;;;;4918287;29;20032;-70
2021/06/15 03:22:40;;;;;;;7.68;4.90;;;16.90;92.90;;;;;;4916227;29;20027;-71
2021/06/15 03:25:07;;;;;;;10.40;5.00;;;16.90;92.60;;;;;;4917190;29;20030;-70
2021/06/15 03:27:37;;;;;;;6.45;4.60;;;16.90;92.60;;;;;;4935021;29;20076;-70
2021/06/15 03:30:12;;;;;;;7.43;4.30;;;16.90;92.50;;;;;;4934524;29;20468;-70
2021/06/15 03:32:49;;;;;;;5.95;4.35;;;16.90;92.50;;;;;;4934492;29;20485;-71
2021/06/15 03:35:17;;;;;;;8.52;4.63;;;16.90;92.50;;;;;;4935037;29;20024;-71
2021/06/15 03:37:53;;;;;;;9.00;4.95;;;16.90;92.50;;;;;;4934922;29;20400;-70
2021/06/15 03:40:22;;;;;;;8.07;4.65;;;16.90;92.40;;;;;;4917919;29;20051;-70
2021/06/15 03:42:50;;;;;;;7.15;4.25;;;17.00;92.50;;;;;;4934613;29;20041;-72
2021/06/15 03:45:16;;;;;;;7.30;4.07;;;17.00;92.40;;;;;;4934036;29;20058;-71
2021/06/15 03:47:46;;;;;;;7.00;4.22;;;17.00;92.20;;;;;;4935108;29;20024;-71
2021/06/15 03:50:13;;;;;;;7.28;4.50;;;17.00;92.10;;;;;;4934960;29;20020;-71
2021/06/15 03:52:40;;;;;;;8.10;3.88;;;17.10;92.10;;;;;;4934221;29;20175;-71
2021/06/15 03:55:08;;;;;;;7.40;3.95;;;17.10;92.00;;;;;;4917220;29;20031;-71
2021/06/15 03:57:41;;;;;;;11.98;4.63;;;17.10;92.00;;;;;;4935120;29;20040;-70
2021/06/15 04:00:28;;;;;;;9.13;4.25;;;17.10;91.90;;;;;;4933859;29;20027;-71
2021/06/15 04:02:56;;;;;;;6.78;3.60;;;17.10;91.70;;;;;;4934245;29;20373;-70
2021/06/15 04:05:27;;;;;;;6.57;3.90;;;17.10;91.80;;;;;;4934792;29;20035;-72
2021/06/15 04:07:56;;;;;;;6.28;3.92;;;17.10;91.60;;;;;;4933831;29;20420;-72
2021/06/15 04:10:23;;;;;;;8.07;3.78;;;17.00;91.50;;;;;;4934750;29;20027;-72
2021/06/15 04:12:51;;;;;;;4.45;3.50;;;17.00;91.50;;;;;;4917435;29;20035;-71
2021/06/15 04:15:17;;;;;;;5.13;3.50;;;17.00;91.50;;;;;;4920081;29;20019;-71
2021/06/15 04:17:50;;;;;;;6.85;3.00;;;17.10;91.30;;;;;;4938469;29;20082;-71
2021/06/15 04:20:21;;;;;;;5.03;3.50;;;17.10;91.20;;;;;;4937756;29;20547;-71
2021/06/15 04:22:48;;;;;;;5.15;3.28;;;17.20;91.10;;;;;;4921318;29;20067;-70
2021/06/15 04:25:19;;;;;;;7.72;3.58;;;17.10;90.80;;;;;;4921250;29;20030;-71
2021/06/15 04:27:46;;;;;;;6.18;3.22;;;17.20;90.30;;;;;;4937492;29;20031;-71
2021/06/15 04:30:14;;;;;;;6.40;3.42;;;17.20;90.30;;;;;;4921156;29;20024;-70
2021/06/15 04:32:45;;;;;;;9.13;2.92;;;17.20;90.20;;;;;;4921100;29;20395;-71
2021/06/15 04:35:12;;;;;;;4.70;2.20;;;17.20;90.10;;;;;;4937273;29;20027;-73
2021/06/15 04:37:38;;;;;;;6.00;2.78;;;17.20;90.10;;;;;;4938337;29;20036;-71
2021/06/15 04:40:13;;;;;;;6.43;2.65;;;17.10;90.00;;;;;;4920807;29;20086;-71
2021/06/15 04:43:05;;;;;;;7.80;2.63;;;17.10;90.20;;;;;;4937336;29;20042;-72
2021/06/15 04:45:36;;;;;;;6.97;2.63;;;17.00;89.60;;;;;;4920695;29;20127;-72
2021/06/15 04:48:08;;;;;;;5.55;2.75;;;17.00;90.00;;;;;;4920690;29;20384;-71
2021/06/15 04:50:34;;;;;;;4.10;2.60;;;17.00;89.80;;;;;;4938140;29;20103;-73
2021/06/15 04:53:05;;;;;;;5.10;2.47;;;17.00;89.60;;;;;;4937501;29;20476;-70
2021/06/15 04:55:37;;;;;;;5.25;2.05;;;17.00;89.70;;;;;;4937117;29;20079;-71
2021/06/15 04:58:07;;;;;;;4.50;2.08;;;17.00;89.20;;;;;;4920151;29;20131;-70
2021/06/15 05:00:33;;;;;;;9.32;2.58;;;17.00;89.10;;;;;;4937721;29;20047;-72
2021/06/15 05:03:00;;;;;;;4.85;2.67;;;17.10;89.20;;;;;;4936717;29;20032;-73
2021/06/15 05:05:26;;;;;;;4.30;2.03;;;17.10;88.60;;;;;;4937701;29;20027;-72
2021/06/15 05:08:00;;;;;;;4.93;2.00;;;17.10;88.20;;;;;;4937403;29;20026;-71
2021/06/15 05:10:28;;;;;;;5.43;2.00;;;17.10;87.80;;;;;;4936896;29;20025;-71
2021/06/15 05:12:54;;;;;;;3.83;1.92;;;17.10;87.50;;;;;;4936973;29;20032;-71
2021/06/15 05:15:27;;;;;;;5.88;1.98;;;17.10;87.80;;;;;;4937605;29;20027;-71
2021/06/15 05:17:55;;;;;;;4.97;2.08;;;17.10;87.30;;;;;;4936582;29;20028;-71
2021/06/15 05:20:22;;;;;;;7.30;2.58;;;17.00;87.10;;;;;;4920292;29;20384;-71
2021/06/15 05:23:09;;;;;;;4.22;1.70;;;17.00;87.20;;;;;;4919870;29;20119;-70
2021/06/15 05:25:34;;;;;;;3.97;1.65;;;17.00;87.20;;;;;;4935415;29;20099;-71
2021/06/15 05:28:00;;;;;;;4.55;1.52;;;17.00;87.80;;;;;;4937009;29;20106;-80
2021/06/15 05:30:28;;;;;;;6.63;1.95;;;17.10;86.80;;;;;;4920155;29;20031;-78
2021/06/15 05:32:54;;;;;;;7.00;1.90;;;17.20;86.50;;;;;;4937120;29;20034;-72
2021/06/15 05:35:19;;;;;;;8.20;2.53;;;17.30;86.20;;;;;;4920066;29;20134;-72
2021/06/15 05:37:47;;;;;;;6.78;2.00;;;17.40;85.70;;;;;;4919050;29;20560;-70
2021/06/15 05:40:13;;;;;;;7.00;1.83;;;17.50;85.60;;;;;;4919808;29;20028;-70
2021/06/15 05:42:39;;;;;;;5.65;1.75;;;17.60;85.50;;;;;;4936952;29;20046;-71
2021/06/15 05:45:07;;;;;;;5.47;1.65;;;17.70;85.10;;;;;;4935837;29;20048;-71
2021/06/15 05:47:32;;;;;;;4.05;1.90;;;17.70;84.50;;;;;;4938649;29;20504;-70
2021/06/15 05:49:58;;;;;;;5.05;1.50;;;17.80;84.20;;;;;;4936206;29;20027;-70
2021/06/15 05:52:24;;;;;;;6.80;2.13;;;17.80;84.00;;;;;;4923721;29;20519;-70
2021/06/15 05:54:50;;;;;;;9.05;2.28;;;17.90;84.00;;;;;;4936374;29;20086;-72
2021/06/15 05:57:15;;;;;;;6.97;1.77;;;17.90;83.50;;;;;;4931672;29;20036;-71
2021/06/15 05:59:41;;;;;;;6.03;1.98;;;18.00;83.70;;;;;;4934994;29;20016;-70
2021/06/15 06:02:07;;;;;;;6.63;1.90;;;18.10;83.90;;;;;;4918708;29;20042;-70
2021/06/15 06:10:12;;;;;;;6.18;1.45;;;18.40;82.80;;;;;;4955719;29;20534;-70
2021/06/15 06:12:38;;;;;;;3.38;1.58;;;18.40;82.30;;;;;;4954560;28;20071;-70
2021/06/15 06:15:06;;;;;;;5.78;1.65;;;18.50;81.80;;;;;;4952645;28;20027;-71
2021/06/15 06:17:32;;;;;;;5.72;2.17;;;18.60;80.90;;;;;;4934738;29;20028;-71
2021/06/15 06:19:58;;;;;;;4.78;1.83;;;18.70;80.80;;;;;;4931480;29;20126;-70
2021/06/15 06:22:24;;;;;;;7.25;1.80;;;18.90;80.80;;;;;;4948501;29;20123;-71
2021/06/15 06:24:50;;;;;;;5.18;1.90;;;19.10;80.00;;;;;;4937167;28;20078;-71
2021/06/15 06:27:16;;;;;;;7.28;1.85;;;19.30;78.90;;;;;;4954580;28;20030;-71
2021/06/15 06:29:42;;;;;;;4.38;1.50;;;19.30;78.50;;;;;;4955189;29;20020;-72
2021/06/15 06:32:07;;;;;;;5.95;1.50;;;19.30;78.10;;;;;;4935763;29;20122;-71
2021/06/15 06:34:33;;;;;;;4.82;1.75;;;19.30;78.80;;;;;;4945548;29;20240;-73
2021/06/15 06:36:59;;;;;;;7.72;1.92;;;19.20;77.70;;;;;;4925502;29;20031;-78
2021/06/15 06:39:24;;;;;;;3.85;1.48;;;19.30;77.10;;;;;;4951584;29;20031;-70
2021/06/15 06:41:50;;;;;;;4.07;1.50;;;19.30;77.00;;;;;;4934236;29;20028;-77
2021/06/15 06:44:17;;;;;;;6.00;1.55;;;19.30;77.80;;;;;;4918173;29;20070;-82
2021/06/15 06:46:42;;;;;;;3.83;1.60;;;19.30;77.10;;;;;;4918626;29;20036;-73
2021/06/15 06:49:08;;;;;;;4.75;1.55;;;19.30;77.50;;;;;;4935312;29;20031;-71
2021/06/15 06:51:34;;;;;;;5.35;1.50;;;19.30;77.40;;;;;;4925809;29;20443;-75
2021/06/15 06:54:00;;;;;;;7.55;2.42;;;19.40;76.10;;;;;;4934811;29;20027;-70
2021/06/15 06:56:27;;;;;;;6.60;1.80;;;19.50;76.20;;;;;;4917628;29;20079;-72
2021/06/15 06:58:53;;;;;;;4.63;1.88;;;19.60;75.90;;;;;;4935013;29;20043;-68
2021/06/15 07:01:18;;;;;;;4.75;1.75;;;19.70;75.90;;;;;;4944774;29;20060;-70
2021/06/15 07:03:44;;;;;;;6.22;1.88;;;19.70;75.80;;;;;;4935795;29;20480;-71
2021/06/15 07:06:10;;;;;;;6.10;1.50;;;19.70;75.50;;;;;;4953498;28;20040;-75
2021/06/15 07:08:35;;;;;;;2.17;1.50;;;19.90;75.60;;;;;;4954417;29;20502;-70
2021/06/15 07:11:01;;;;;;;3.50;1.67;;;19.90;74.50;;;;;;4933336;29;20059;-69
2021/06/15 07:13:26;;;;;;;2.97;1.23;;;19.90;73.90;;;;;;4935712;29;20083;-70
2021/06/15 07:15:52;;;;;;;6.78;1.83;;;19.90;74.10;;;;;;4933944;29;20020;-70
2021/06/15 07:18:17;;;;;;;5.63;1.80;;;19.90;74.20;;;;;;4918009;29;20477;-68
2021/06/15 07:20:43;;;;;;;4.30;1.67;;;19.70;73.60;;;;;;4935038;29;20059;-70
2021/06/15 07:23:09;;;;;;;4.80;1.80;;;19.40;74.20;;;;;;4917111;29;20027;-81
2021/06/15 07:25:35;;;;;;;7.15;2.17;;;19.20;74.50;;;;;;4934435;29;20027;-73
2021/06/15 07:28:01;;;;;;;5.60;1.95;;;19.20;75.20;;;;;;4935365;29;20461;-72
2021/06/15 07:30:27;;;;;;;4.72;1.50;;;19.10;73.40;;;;;;4934327;29;20027;-72
2021/06/15 07:32:57;;;;;;;5.47;1.70;;;19.10;73.10;;;;;;4918677;29;20028;-77
2021/06/15 07:35:27;;;;;;;4.20;1.40;;;19.30;72.90;;;;;;4934863;29;20030;-80
2021/06/15 07:37:53;;;;;;;5.55;1.60;;;19.50;72.50;;;;;;4915747;29;20032;-74
2021/06/15 07:40:23;;;;;;;4.60;1.85;;;19.60;72.00;;;;;;4934411;29;20099;-70
2021/06/15 07:42:53;;;;;;;3.40;1.38;;;19.80;72.00;;;;;;4934493;29;20128;-74
2021/06/15 07:45:19;;;;;;;5.97;1.57;;;20.10;71.00;;;;;;4934966;29;20036;-73
2021/06/15 07:47:45;;;;;;;5.47;1.42;;;20.50;68.60;;;;;;4933884;29;20511;-73
2021/06/15 07:50:12;;;;;;;2.80;1.38;;;20.80;67.30;;;;;;4937697;29;20027;-70
2021/06/15 07:52:38;;;;;;;5.20;1.52;;;21.10;67.90;;;;;;4929898;29;20396;-70
2021/06/15 07:55:04;;;;;;;5.80;1.30;;;21.40;68.10;;;;;;4945309;29;20020;-71
2021/06/15 07:57:30;;;;;;;3.03;1.38;;;21.60;66.00;;;;;;4934435;29;20031;-70
2021/06/15 07:59:56;;;;;;;6.10;1.50;;;21.50;66.00;;;;;;4948778;29;20031;-70
2021/06/15 08:02:21;;;;;;;4.15;1.25;;;21.50;66.10;;;;;;4936477;29;20376;-70
2021/06/15 08:04:47;;;;;;;4.13;1.60;;;21.50;66.60;;;;;;4936006;28;20031;-71
2021/06/15 08:07:14;;;;;;;5.40;1.75;;;21.40;65.50;;;;;;4933742;29;20031;-72
2021/06/15 08:09:39;;;;;;;4.20;1.60;;;21.20;65.40;;;;;;4953611;28;20083;-69
2021/06/15 08:12:05;;;;;;;7.55;1.55;;;21.10;66.20;;;;;;4941372;29;20024;-69
2021/06/15 08:14:31;;;;;;;5.68;1.80;;;20.90;66.30;;;;;;4933982;29;20094;-70
2021/06/15 08:16:57;;;;;;;4.88;1.60;;;21.00;67.40;;;;;;4932844;29;20055;-71
2021/06/15 08:19:23;;;;;;;5.18;1.63;;;21.00;66.50;;;;;;4933455;29;20044;-70
2021/06/15 08:21:48;;;;;;;2.70;1.20;;;21.10;66.30;;;;;;4933777;29;20024;-75
2021/06/15 08:24:15;;;;;;;4.50;1.50;;;21.30;66.40;;;;;;4934244;29;20024;-75
2021/06/15 08:26:42;;;;;;;3.67;1.63;;;21.50;65.70;;;;;;4916099;29;20120;-70
2021/06/15 08:29:08;;;;;;;5.50;1.75;;;21.60;66.10;;;;;;4934140;29;20175;-73
2021/06/15 08:31:33;;;;;;;4.18;1.60;;;21.70;64.60;;;;;;4916655;29;20110;-73
2021/06/15 08:33:59;;;;;;;6.20;1.38;;;21.60;64.70;;;;;;4917798;29;20127;-72
2021/06/15 08:36:25;;;;;;;5.43;1.70;;;21.50;65.60;;;;;;4941486;29;20071;-71
2021/06/15 08:38:51;;;;;;;5.45;1.42;;;21.40;65.80;;;;;;4934735;29;20070;-78
2021/06/15 08:41:20;;;;;;;3.53;1.50;;;21.20;66.30;;;;;;4916493;29;20046;-70
2021/06/15 08:43:47;;;;;;;4.78;1.40;;;21.00;65.70;;;;;;4916854;29;20028;-75
2021/06/15 08:46:14;;;;;;;5.18;1.55;;;20.80;65.50;;;;;;4900247;29;20056;-73
2021/06/15 08:48:40;;;;;;;3.47;1.40;;;20.60;65.60;;;;;;4933147;29;20028;-70
2021/06/15 08:51:06;;;;;;;4.70;1.70;;;20.40;65.40;;;;;;4917845;29;20507;-72
2021/06/15 08:53:35;;;;;;;3.30;1.15;;;20.30;65.80;;;;;;4943530;29;20099;-77
2021/06/15 08:56:12;;;;;;;3.80;1.40;;;20.20;66.70;;;;;;4951750;29;20050;-75
2021/06/15 08:58:43;;;;;;;3.80;1.48;;;20.20;67.60;;;;;;4936247;29;20432;-78
2021/06/15 09:01:11;;;;;;;3.70;1.10;;;20.30;67.20;;;;;;4952806;28;20023;-72
2021/06/15 09:03:38;;;;;;;4.57;1.60;;;20.50;67.90;;;;;;4936158;29;20120;-70
2021/06/15 09:06:04;;;;;;;4.20;1.60;;;20.70;68.20;;;;;;4919238;29;20463;-73
2021/06/15 09:08:30;;;;;;;3.85;1.50;;;21.00;67.90;;;;;;4936763;29;20492;-71
2021/06/15 09:10:57;;;;;;;7.25;2.17;;;21.10;67.80;;;;;;4937047;29;20020;-72
2021/06/15 09:13:40;;;;;;;4.93;1.85;;;21.10;67.60;;;;;;4937096;29;20039;-72
2021/06/15 09:16:19;;;;;;;6.93;1.80;;;20.90;68.70;;;;;;4919415;29;20038;-71
2021/06/15 09:18:45;;;;;;;5.90;1.98;;;20.80;69.20;;;;;;4936942;29;20531;-80
2021/06/15 09:21:11;;;;;;;3.92;1.40;;;20.70;69.70;;;;;;4937600;29;20508;-70
2021/06/15 09:23:38;;;;;;;5.65;1.80;;;20.70;69.60;;;;;;4936379;29;20027;-69
2021/06/15 09:26:06;;;;;;;5.18;1.33;;;20.60;69.70;;;;;;4936587;29;20550;-73
2021/06/15 09:28:32;;;;;;;5.00;1.40;;;20.50;71.00;;;;;;4956446;29;20387;-71
2021/06/15 09:31:07;;;;;;;5.90;1.83;;;20.60;69.90;;;;;;4953424;28;20399;-73
2021/06/15 15:14:30;;;;;;;3.72;1.60;;;25.50;47.70;;;;;;4970463;28;20051;-86
2021/06/15 15:16:56;;;;;;;3.90;1.33;;;25.30;48.00;;;;;;4972262;28;20041;-84
2021/06/15 15:19:21;;;;;;;6.15;2.05;;;25.30;49.40;;;;;;4980924;28;20045;-84
2021/06/15 15:21:50;;;;;;;3.65;1.50;;;25.30;48.50;;;;;;4975230;28;20031;-82
2021/06/15 15:24:18;;;;;;;4.43;1.80;;;25.40;48.80;;;;;;4975578;28;20037;-81
2021/06/15 15:26:45;;;;;;;3.95;1.73;;;25.70;49.10;;;;;;4994254;28;20435;-77
2021/06/15 15:29:11;;;;;;;4.18;1.80;;;26.00;47.70;;;;;;4994197;28;20029;-78
2021/06/15 15:31:37;;;;;;;3.20;1.50;;;26.10;47.00;;;;;;4998064;28;20046;-73
2021/06/15 15:34:06;;;;;;;4.55;1.63;;;26.10;46.20;;;;;;4975173;28;20039;-85
2021/06/15 15:36:33;;;;;;;4.20;1.45;;;26.20;46.50;;;;;;4976748;28;20019;-82
2021/06/15 15:38:58;;;;;;;4.75;1.80;;;26.20;46.40;;;;;;4992806;28;20034;-82
2021/06/15 15:41:29;;;;;;;5.30;1.90;;;26.10;45.50;;;;;;4992223;28;20100;-77
2021/06/15 15:43:55;;;;;;;4.13;1.83;;;26.10;46.10;;;;;;4974860;28;20037;-82
2021/06/15 15:46:24;;;;;;;5.90;2.50;;;26.30;46.30;;;;;;4999374;28;20261;-84
2021/06/15 15:51:15;;;;;;;5.10;1.65;;;26.90;45.50;;;;;;5164475;23;20047;-73
2021/06/15 15:53:41;;;;;;;4.03;1.70;;;27.30;47.30;;;;;;4980910;23;20518;-72
2021/06/15 15:56:09;;;;;;;7.22;1.80;;;27.80;47.40;;;;;;5053086;23;20061;-76
2021/06/15 15:58:36;;;;;;;5.45;1.70;;;28.40;45.50;;;;;;4938620;29;20036;-75
2021/06/15 16:01:04;;;;;;;3.75;1.30;;;29.40;43.50;;;;;;4988516;23;20055;-72
2021/06/15 16:03:29;;;;;;;4.60;1.40;;;31.00;40.90;;;;;;4971364;29;20022;-72
2021/06/15 16:05:55;;;;;;;4.10;1.73;;;32.30;37.70;;;;;;4990721;23;20505;-86
2021/06/15 16:08:21;;;;;;;6.03;1.70;;;33.70;35.40;;;;;;4969319;29;20050;-83
2021/06/15 16:10:46;;;;;;;3.13;1.58;;;34.90;33.50;;;;;;4954662;23;20076;-80
2021/06/15 16:13:12;;;;;;;5.38;1.73;;;35.60;32.90;;;;;;4993704;23;20753;-72
2021/06/15 16:15:38;;;;;;;4.75;1.50;;;36.00;31.10;;;;;;5013177;23;20047;-75
2021/06/15 16:18:07;;;;;;;3.22;1.45;;;35.90;30.40;;;;;;5162471;23;20047;-87
2021/06/15 16:20:34;;;;;;;4.25;1.52;;;35.70;30.90;;;;;;4970247;29;20054;-76
2021/06/15 16:23:02;;;;;;;4.43;1.73;;;36.20;30.50;;;;;;4963149;28;20094;-79
2021/06/15 16:25:30;;;;;;;3.97;1.60;;;36.90;30.30;;;;;;4982564;28;20079;-84
2021/06/15 16:27:56;;;;;;;3.60;1.70;;;37.60;29.90;;;;;;4978517;28;20130;-79
2021/06/15 16:30:22;;;;;;;3.13;1.52;;;38.20;28.80;;;;;;4983371;23;20075;-95
2021/06/15 16:32:50;;;;;;;4.68;1.92;;;38.40;29.00;;;;;;4959897;29;20028;-95
2021/06/15 16:35:16;;;;;;;5.55;1.77;;;38.70;28.20;;;;;;5060607;23;20043;-87
2021/06/15 16:37:42;;;;;;;3.78;1.90;;;38.20;28.10;;;;;;5162584;23;20066;-73
2021/06/15 16:40:10;;;;;;;5.20;1.80;;;38.00;29.10;;;;;;5019802;28;20054;-81
2021/06/15 16:42:36;;;;;;;4.80;2.00;;;38.10;28.50;;;;;;5019652;23;20155;-81
2021/06/15 16:45:06;;;;;;;4.95;1.60;;;38.10;28.50;;;;;;5005338;23;20059;-90
2021/06/15 16:47:31;;;;;;;8.20;2.88;;;37.90;27.80;;;;;;4957656;29;20043;-96
2021/06/15 16:49:57;;;;;;;7.03;2.17;;;37.30;30.70;;;;;;4945708;29;20027;-96
2021/06/15 16:52:23;;;;;;;6.30;1.73;;;35.30;35.60;;;;;;4943504;29;20473;-95
2021/06/15 16:54:49;;;;;;;6.22;1.95;;;33.90;36.30;;;;;;4927517;29;20035;-96
2021/06/15 16:57:14;;;;;;;2.90;1.35;;;33.90;34.60;;;;;;4939922;29;20464;-93
2021/06/15 16:59:40;;;;;;;4.38;1.70;;;34.60;36.60;;;;;;4938885;29;20079;-95
2021/06/15 17:02:11;;;;;;;4.35;1.80;;;35.40;36.10;;;;;;4922334;29;20063;-91
2021/06/15 17:04:37;;;;;;;3.90;1.90;;;36.10;34.10;;;;;;4922612;29;20031;-83
2021/06/15 17:07:03;;;;;;;5.95;1.42;;;36.80;32.90;;;;;;4938508;29;20028;-89
2021/06/15 17:09:28;;;;;;;3.15;1.58;;;37.50;32.20;;;;;;4921669;29;20043;-93
2021/06/15 17:11:55;;;;;;;6.10;1.65;;;37.80;29.20;;;;;;4939658;29;20031;-85
2021/06/15 17:14:21;;;;;;;6.25;2.10;;;37.40;28.50;;;;;;4933529;29;20571;-81
2021/06/15 17:16:46;;;;;;;4.30;1.50;;;36.10;30.50;;;;;;4933825;29;20051;-75
2021/06/15 17:19:14;;;;;;;5.40;1.90;;;34.40;32.30;;;;;;4934346;29;20090;-85
2021/06/15 17:21:40;;;;;;;4.40;1.77;;;33.40;36.40;;;;;;4916210;29;20023;-74
2021/06/15 17:24:06;;;;;;;5.25;1.90;;;33.70;31.70;;;;;;4941521;29;20452;-73
2021/06/15 17:26:32;;;;;;;5.45;2.00;;;34.30;30.70;;;;;;4918628;29;20031;-78
2021/06/15 17:28:59;;;;;;;3.30;1.27;;;34.20;30.30;;;;;;4935280;29;20074;-85
2021/06/15 17:31:25;;;;;;;4.53;2.22;;;34.10;30.10;;;;;;4940874;29;20038;-79
2021/06/15 17:33:54;;;;;;;6.95;1.90;;;33.70;31.50;;;;;;4918441;29;20032;-85
2021/06/15 17:36:20;;;;;;;5.15;1.63;;;33.10;31.80;;;;;;4936960;29;20034;-80
2021/06/15 17:38:47;;;;;;;7.28;2.10;;;32.40;31.40;;;;;;4933635;29;20415;-86
2021/06/15 17:41:14;;;;;;;4.55;1.83;;;31.40;32.60;;;;;;4918008;29;20032;-80
2021/06/15 17:43:40;;;;;;;3.80;1.60;;;31.00;33.70;;;;;;4916632;29;20031;-83
2021/06/15 17:46:06;;;;;;;5.18;1.75;;;31.00;35.40;;;;;;4916612;29;20059;-84
2021/06/15 17:48:31;;;;;;;5.93;1.98;;;31.10;34.70;;;;;;4933955;29;20047;-84
2021/06/15 17:50:57;;;;;;;4.72;2.10;;;31.20;33.30;;;;;;4918785;29;20550;-84
2021/06/15 17:53:23;;;;;;;4.78;1.75;;;31.40;34.20;;;;;;4934327;29;20030;-84
2021/06/15 17:55:50;;;;;;;4.00;1.75;;;32.00;33.10;;;;;;4933789;29;20035;-88
2021/06/15 17:58:15;;;;;;;4.05;1.60;;;32.60;34.50;;;;;;4931764;29;20078;-75
2021/06/15 18:00:43;;;;;;;3.88;1.60;;;33.10;35.60;;;;;;4918600;29;20165;-82
2021/06/15 18:03:10;;;;;;;3.67;1.65;;;33.50;34.90;;;;;;4915385;29;20413;-85
2021/06/15 18:05:46;;;;;;;4.65;1.33;;;33.40;33.50;;;;;;4916531;29;20024;-82
2021/06/15 18:08:19;;;;;;;4.47;2.45;;;32.60;33.60;;;;;;4928691;29;20054;-92
2021/06/15 18:10:44;;;;;;;3.40;1.23;;;32.00;35.80;;;;;;4935029;29;20551;-80
2021/06/15 18:13:11;;;;;;;3.17;1.27;;;31.50;33.40;;;;;;4936234;29;20034;-83
2021/06/15 18:15:37;;;;;;;5.03;1.92;;;30.40;34.60;;;;;;4933022;29;20023;-87
2021/06/15 18:18:07;;;;;;;4.95;1.58;;;29.30;35.80;;;;;;4932280;29;20368;-87
2021/06/15 18:20:32;;;;;;;3.33;1.05;;;28.40;37.30;;;;;;4933220;29;20027;-84
2021/06/15 18:22:58;;;;;;;3.33;1.50;;;27.60;38.00;;;;;;4915677;29;20030;-82
2021/06/15 18:25:25;;;;;;;3.28;2.03;;;27.10;39.00;;;;;;4916423;29;20042;-82
2021/06/15 18:27:52;;;;;;;5.00;1.55;;;26.50;39.00;;;;;;4916592;29;20027;-86
2021/06/15 18:30:18;;;;;;;5.43;2.05;;;26.10;41.70;;;;;;4932135;29;20040;-86
2021/06/15 18:32:44;;;;;;;4.95;1.48;;;25.70;42.30;;;;;;4916627;29;20036;-83
2021/06/15 18:35:12;;;;;;;4.55;1.35;;;25.50;41.40;;;;;;4936522;29;20075;-89
2021/06/15 18:37:39;;;;;;;4.60;1.98;;;25.30;43.00;;;;;;4936765;29;20115;-93
2021/06/15 18:40:06;;;;;;;4.47;1.77;;;25.20;42.30;;;;;;4941398;29;20055;-96